createdAt,value
2023-03-29T00:04:53.742Z,39.40
2023-03-29T00:21:12.472Z,40.20
2023-03-29T00:24:49.327Z,40.30
2023-03-29T00:32:37.554Z,40.30
2023-03-29T01:06:46.880Z,41.20
2023-03-29T01:13:46.800Z,41.30
2023-03-29T01:17:22.431Z,41.50
2023-03-29T01:21:05.430Z,41.50
2023-03-29T01:39:10.884Z,41.80
2023-03-29T01:42:18.734Z,41.70
2023-03-29T01:48:45.965Z,41.80
2023-03-29T01:51:58.166Z,41.80
2023-03-29T01:58:41.890Z,41.80
2023-03-29T02:02:00.375Z,41.80
2023-03-29T02:04:55.349Z,41.80
2023-03-29T02:08:10.801Z,41.90
2023-03-29T02:11:31.218Z,41.90
2023-03-29T02:15:01.617Z,42.00
2023-03-29T02:22:24.677Z,42.10
2023-03-29T02:42:39.887Z,42.10
2023-03-29T02:49:52.568Z,42.20
2023-03-29T02:57:57.665Z,42.20
2023-03-29T03:13:05.599Z,42.20
2023-03-29T03:21:06.343Z,42.30
2023-03-29T04:24:35.905Z,42.70
2023-03-29T05:18:12.879Z,42.90
2023-03-29T05:21:08.597Z,42.90
2023-03-29T06:19:31.628Z,39.30
2023-03-29T06:22:04.605Z,39.00
2023-03-29T07:20:42.477Z,35.40
2023-03-29T07:24:03.195Z,35.30
2023-03-29T07:29:40.172Z,35.10
2023-03-29T07:36:05.146Z,35.10
2023-03-29T07:39:11.231Z,35.20
2023-03-29T07:41:52.560Z,35.00
2023-03-29T07:48:42.585Z,34.90
2023-03-29T07:51:40.633Z,35.00
2023-03-29T07:54:39.289Z,34.90
2023-03-29T07:57:56.596Z,35.00
2023-03-29T08:00:51.103Z,35.20
2023-03-29T08:04:34.039Z,35.40
2023-03-29T08:07:12.842Z,35.40
2023-03-29T08:10:16.835Z,35.60
2023-03-29T08:13:12.146Z,35.50
2023-03-29T08:16:03.630Z,35.70
2023-03-29T08:18:41.440Z,36.80
2023-03-29T08:21:17.602Z,35.70
2023-03-29T08:24:05.117Z,36.70
2023-03-29T08:31:04.278Z,35.40
2023-03-29T08:34:01.784Z,35.60
2023-03-29T08:37:12.482Z,35.40
2023-03-29T08:39:51.375Z,35.50
2023-03-29T08:43:20.166Z,35.10
2023-03-29T08:46:47.448Z,35.20
2023-03-29T08:49:48.779Z,34.60
2023-03-29T08:52:58.970Z,34.50
2023-03-29T08:59:21.746Z,34.80
2023-03-29T09:03:30.879Z,35.20
2023-03-29T09:11:11.884Z,35.10
2023-03-29T09:14:35.374Z,35.00
2023-03-29T09:17:37.075Z,35.10
2023-03-29T09:21:08.568Z,35.00
2023-03-29T09:27:42.065Z,35.10
2023-03-29T09:31:11.980Z,35.20
2023-03-29T09:34:18.056Z,34.70
2023-03-29T09:37:17.272Z,34.50
2023-03-29T09:40:09.558Z,35.10
2023-03-29T09:58:34.556Z,33.70
2023-03-29T10:01:20.627Z,33.20
2023-03-29T10:04:45.136Z,32.60
2023-03-29T10:08:08.894Z,32.40
2023-03-29T10:10:59.919Z,32.50
2023-03-29T10:13:46.389Z,32.10
2023-03-29T10:16:33.722Z,32.10
2023-03-29T10:19:37.097Z,32.00
2023-03-29T10:22:23.168Z,32.00
2023-03-29T10:25:06.953Z,32.10
2023-03-29T10:28:03.917Z,32.60
2023-03-29T10:30:39.313Z,32.80
2023-03-29T10:33:53.400Z,33.20
2023-03-29T10:36:35.042Z,33.50
2023-03-29T10:39:21.699Z,34.00
2023-03-29T10:42:30.517Z,34.30
2023-03-29T10:45:27.632Z,34.70
2023-03-29T10:48:07.168Z,36.00
2023-03-29T10:50:39.850Z,35.20
2023-03-29T10:53:38.321Z,35.30
2023-03-29T10:56:42.275Z,35.60
2023-03-29T10:59:47.796Z,36.20
2023-03-29T11:02:56.830Z,37.60
2023-03-29T11:06:05.954Z,37.30
2023-03-29T11:08:57.064Z,37.80
2023-03-29T11:12:19.438Z,38.40
2023-03-29T11:15:35.850Z,38.70
2023-03-29T11:26:56.388Z,39.80
2023-03-29T11:38:07.888Z,40.70
2023-03-29T11:49:01.788Z,41.50
2023-03-29T11:52:07.129Z,41.70
2023-03-29T11:58:08.319Z,42.20
2023-03-29T12:05:17.413Z,42.60
2023-03-29T12:08:36.034Z,42.70
2023-03-29T12:15:58.268Z,42.90
2023-03-29T12:22:08.202Z,43.60
2023-03-29T12:31:46.076Z,44.20
2023-03-29T12:35:26.835Z,44.30
2023-03-29T12:38:34.818Z,44.60
2023-03-29T12:42:29.844Z,44.80
2023-03-29T12:50:06.108Z,45.00
2023-03-29T12:53:38.708Z,45.10
2023-03-29T12:56:29.858Z,45.50
2023-03-29T12:59:30.404Z,45.80
2023-03-29T13:03:11.369Z,46.00
2023-03-29T13:05:36.563Z,46.10
2023-03-29T13:08:35.742Z,46.40
2023-03-29T13:11:32.342Z,46.50
2023-03-29T13:14:24.661Z,46.90
2023-03-29T13:17:18.333Z,47.30
2023-03-29T13:20:19.105Z,47.30
2023-03-29T13:23:30.966Z,48.30
2023-03-29T13:26:44.104Z,47.40
2023-03-29T13:29:35.309Z,47.70
2023-03-29T13:32:20.053Z,48.00
2023-03-29T13:35:21.348Z,48.20
2023-03-29T13:38:21.462Z,48.40
2023-03-29T13:40:54.324Z,48.90
2023-03-29T13:43:46.295Z,49.00
2023-03-29T13:46:25.142Z,49.00
2023-03-29T13:49:20.691Z,49.30
2023-03-29T13:52:12.856Z,49.40
2023-03-29T13:55:02.253Z,49.50
2023-03-29T13:57:46.272Z,49.80
2023-03-29T14:00:25.543Z,49.70
2023-03-29T14:03:04.481Z,49.80
2023-03-29T14:05:40.632Z,49.70
2023-03-29T14:08:26.608Z,49.70
2023-03-29T14:11:04.971Z,49.70
2023-03-29T14:13:38.704Z,50.00
2023-03-29T14:16:13.967Z,50.10
2023-03-29T14:18:51.427Z,50.40
2023-03-29T14:21:24.067Z,50.30
2023-03-29T14:24:01.063Z,50.60
2023-03-29T14:26:36.135Z,50.60
2023-03-29T14:29:12.350Z,50.70
2023-03-29T14:31:45.109Z,51.00
2023-03-29T14:34:19.478Z,51.10
2023-03-29T14:36:54.304Z,51.10
2023-03-29T14:39:27.152Z,51.00
2023-03-29T14:42:00.105Z,52.10
2023-03-29T14:44:34.984Z,51.20
2023-03-29T14:47:14.189Z,51.20
2023-03-29T14:49:47.241Z,51.50
2023-03-29T14:52:20.914Z,51.70
2023-03-29T14:55:01.136Z,52.10
2023-03-29T14:57:36.805Z,52.10
2023-03-29T15:00:22.974Z,52.20
2023-03-29T15:03:01.192Z,52.50
2023-03-29T15:05:39.734Z,52.60
2023-03-29T15:08:27.616Z,52.60
2023-03-29T15:11:00.881Z,52.90
2023-03-29T15:13:33.253Z,53.00
2023-03-29T15:16:09.396Z,52.60
2023-03-29T15:18:44.539Z,53.00
2023-03-29T15:21:20.190Z,53.10
2023-03-29T15:24:04.332Z,53.10
2023-03-29T15:26:38.553Z,53.90
2023-03-29T15:29:23.630Z,54.00
2023-03-29T15:31:57.926Z,54.10
2023-03-29T15:34:32.850Z,53.90
2023-03-29T15:37:05.574Z,53.90
2023-03-29T15:39:46.847Z,53.80
2023-03-29T15:42:19.779Z,54.00
2023-03-29T15:44:56.820Z,53.90
2023-03-29T15:47:29.931Z,54.00
2023-03-29T15:50:02.479Z,54.00
2023-03-29T15:52:35.420Z,53.90
2023-03-29T15:55:09.398Z,53.90
2023-03-29T15:57:47.343Z,53.90
2023-03-29T16:00:25.731Z,54.10
2023-03-29T16:02:58.361Z,54.10
2023-03-29T16:05:31.068Z,54.10
2023-03-29T16:08:03.833Z,54.20
2023-03-29T16:10:40.212Z,54.00
2023-03-29T16:13:16.677Z,54.00
2023-03-29T16:15:54.725Z,53.90
2023-03-29T16:18:27.505Z,53.80
2023-03-29T16:21:00.251Z,53.70
2023-03-29T16:23:33.066Z,53.60
2023-03-29T16:26:08.753Z,53.60
2023-03-29T16:28:41.939Z,53.60
2023-03-29T16:31:15.157Z,53.50
2023-03-29T16:33:47.572Z,53.40
2023-03-29T16:36:20.349Z,53.20
2023-03-29T16:38:53.887Z,53.20
2023-03-29T16:41:27.287Z,53.10
2023-03-29T16:44:02.188Z,53.10
2023-03-29T16:46:35.213Z,52.90
2023-03-29T16:49:08.756Z,52.90
2023-03-29T16:51:43.161Z,53.00
2023-03-29T16:54:29.023Z,53.00
2023-03-29T16:57:07.146Z,52.90
2023-03-29T16:59:47.744Z,52.90
2023-03-29T17:02:20.397Z,52.90
2023-03-29T17:04:58.382Z,52.90
2023-03-29T17:07:31.423Z,53.00
2023-03-29T17:10:06.126Z,52.90
2023-03-29T17:12:39.501Z,53.10
2023-03-29T17:15:14.578Z,53.00
2023-03-29T17:17:47.558Z,53.10
2023-03-29T17:20:20.206Z,53.10
2023-03-29T17:22:55.691Z,53.00
2023-03-29T17:25:28.550Z,52.90
2023-03-29T17:28:01.237Z,53.00
2023-03-29T17:30:35.378Z,53.20
2023-03-29T17:33:08.461Z,53.10
2023-03-29T17:35:45.014Z,53.10
2023-03-29T17:38:17.894Z,53.20
2023-03-29T17:40:56.606Z,53.10
2023-03-29T17:43:29.453Z,53.20
2023-03-29T17:46:05.114Z,53.10
2023-03-29T17:48:37.969Z,53.10
2023-03-29T17:51:10.643Z,53.20
2023-03-29T17:53:43.278Z,53.10
2023-03-29T17:56:19.292Z,53.20
2023-03-29T17:58:53.945Z,53.10
2023-03-29T18:01:26.923Z,53.10
2023-03-29T18:03:59.706Z,53.10
2023-03-29T18:06:34.316Z,53.20
2023-03-29T18:09:07.193Z,53.10
2023-03-29T18:11:39.854Z,53.00
2023-03-29T18:14:12.570Z,52.90
2023-03-29T18:16:45.515Z,52.70
2023-03-29T18:19:18.180Z,52.60
2023-03-29T18:21:52.480Z,52.40
2023-03-29T18:24:25.469Z,52.40
2023-03-29T18:26:58.068Z,52.20
2023-03-29T18:29:37.545Z,52.00
2023-03-29T18:32:10.556Z,51.90
2023-03-29T18:34:43.254Z,51.80
2023-03-29T18:37:17.763Z,51.80
2023-03-29T18:39:50.530Z,51.70
2023-03-29T18:43:34.811Z,51.60
2023-03-29T18:46:08.346Z,51.60
2023-03-29T18:48:41.588Z,51.50
2023-03-29T18:51:15.306Z,51.50
2023-03-29T18:53:47.908Z,51.30
2023-03-29T18:56:23.130Z,51.30
2023-03-29T18:58:56.225Z,51.20
2023-03-29T19:01:28.923Z,51.10
2023-03-29T19:04:01.625Z,51.10
2023-03-29T19:06:34.508Z,51.10
2023-03-29T19:09:07.151Z,51.10
2023-03-29T19:11:39.771Z,51.00
2023-03-29T19:14:12.437Z,51.10
2023-03-29T19:16:45.200Z,50.90
2023-03-29T19:19:18.935Z,50.90
2023-03-29T19:21:51.788Z,51.00
2023-03-29T19:24:24.679Z,51.00
2023-03-29T19:26:57.766Z,51.00
2023-03-29T19:29:30.555Z,51.00
2023-03-29T19:32:05.982Z,50.90
2023-03-29T19:34:38.654Z,50.90
2023-03-29T19:37:11.443Z,51.00
2023-03-29T19:39:45.148Z,51.00
2023-03-29T19:42:17.817Z,51.10
2023-03-29T19:44:50.408Z,51.10
2023-03-29T19:47:23.312Z,51.00
2023-03-29T19:50:00.580Z,50.90
2023-03-29T19:53:10.057Z,51.10
2023-03-29T20:14:26.334Z,51.10
2023-03-29T20:26:14.554Z,51.20
2023-03-29T20:29:55.106Z,51.20
